Cosco Aden — VRKF9 — position and weather

sailwx.info

Track history (hours):
 
Tides and Currents Weather Stations Pressure Air Temp Water Temp Dewpoint Dewpoint Depression Visibility Wind Speed Wind Dir Waves Ship Positions

Cosco Aden

Last reported at 2014-Aug-23 19:33 UTC. Time now 2014-Aug-31 02:32 UTC.
Position N 22°25' E 113°53'.

Length 261 m; draft 12.6 m.

Type: Ship (hazmat cat A). MMSI: 477765900.

Date/timePositionNaut miles runAvg speedWind from/ knotsBaromVisibWave heightAir tempDewpointWater temp
2014-Aug-23 19:33N 22°25' E 113°53'23 1.4
2014-Aug-23 03:33N 22°02' E 113°52'1414.2
2014-Aug-23 02:33N 22°16' E 113°48'1111.4
2014-Aug-23 01:34N 22°27' E 113°45'1212.0
2014-Aug-23 00:33N 22°38' E 113°41'0 0.1
2014-Aug-22 21:08N 22°38' E 113°41'1 0.3
2014-Aug-22 15:33N 22°37' E 113°42'1413.6
2014-Aug-22 14:33N 22°24' E 113°46'1111.3
2014-Aug-22 13:33N 22°13' E 113°49'1212.4
2014-Aug-22 12:33N 22°01' E 113°52'17515.8
2014-Aug-22 01:26N 22°53' E 116°54'1618.1
2014-Aug-22 00:32N 23°01' E 117°09'2814.0
2014-Aug-21 22:33N 23°16' E 117°34'1413.9
2014-Aug-21 21:33N 23°24' E 117°47'1413.9
2014-Aug-21 20:33N 23°34' E 117°58'1514.6
2014-Aug-21 19:34N 23°43' E 118°10'1514.8
2014-Aug-21 18:33N 23°53' E 118°22'1515.1
2014-Aug-21 17:33N 24°03' E 118°35'1514.8
2014-Aug-21 16:33N 24°13' E 118°47'1514.7
2014-Aug-21 15:33N 24°22' E 118°59'1514.9
2014-Aug-21 14:33N 24°32' E 119°12'1514.9
2014-Aug-21 13:32N 24°41' E 119°24'1614.3
2014-Aug-21 12:24N 24°52' E 119°37'1214.1
2014-Aug-21 11:33N 25°02' E 119°46'1414.4
2014-Aug-21 10:34N 25°13' E 119°55'1814.8
2014-Aug-21 09:20N 25°27' E 120°08'1114.6
2014-Aug-21 08:33N 25°36' E 120°16'25515.0
2014-Aug-20 15:34N 29°22' E 122°28'1716.5
2014-Aug-20 14:34N 29°39' E 122°26'1313.4
2014-Aug-20 13:33N 29°48' E 122°15'1111.2
2014-Aug-20 12:33N 29°55' E 122°05'2 1.9
2014-Aug-20 11:29N 29°53' E 122°03'0 0.0
2014-Aug-20 10:29N 29°53' E 122°03'0 0.0
2014-Aug-20 09:28N 29°53' E 122°03'0 0.0
2014-Aug-20 08:29N 29°53' E 122°03'0 0.0
2014-Aug-20 07:29N 29°53' E 122°03'0 0.0
2014-Aug-20 06:23N 29°53' E 122°03'0 0.0
2014-Aug-20 05:29N 29°53' E 122°03'0 0.0
2014-Aug-20 04:29N 29°53' E 122°03'0 0.0
2014-Aug-20 03:28N 29°53' E 122°03'0 0.0
2014-Aug-20 02:29N 29°53' E 122°03'0 0.0
2014-Aug-20 01:29N 29°53' E 122°03'2 2.5
2014-Aug-20 00:33N 29°54' E 122°05'8 8.3
2014-Aug-19 23:33N 29°50' E 122°13'1110.7
2014-Aug-19 22:33N 29°44' E 122°24'1110.7
2014-Aug-19 21:33N 29°48' E 122°35'1514.9
2014-Aug-19 20:33N 29°59' E 122°48'1515.2
2014-Aug-19 19:33N 30°10' E 122°60'1714.9
2014-Aug-19 18:26N 30°27' E 123°02'1715.3
2014-Aug-19 17:18N 30°44' E 123°03'1215.4
2014-Aug-19 16:31N 30°56' E 123°01'32412.3
2014-Aug-18 14:06N 35°57' E 120°40'713.0
2014-Aug-18 13:33N 35°59' E 120°31'1212.3
2014-Aug-18 12:33N 36°02' E 120°17'4 0.3
2014-Aug-18 01:08N 35°60' E 120°12'12010.3
2014-Aug-17 13:33N 36°45' E 122°30'1313.1
2014-Aug-17 12:33N 36°55' E 122°41'1313.3
2014-Aug-17 11:33N 37°07' E 122°46'1414.3
2014-Aug-17 10:34N 37°22' E 122°47'1514.4
2014-Aug-17 09:33N 37°35' E 122°40'1414.6
2014-Aug-17 08:34N 37°43' E 122°24'1414.0
2014-Aug-17 07:34N 37°52' E 122°10'1413.8
2014-Aug-17 06:33N 37°60' E 121°56'1414.1
2014-Aug-17 05:33N 38°09' E 121°43'1414.1
2014-Aug-17 04:33N 38°17' E 121°28'2014.5
2014-Aug-17 03:11N 38°27' E 121°06'914.2
2014-Aug-17 02:33N 38°31' E 120°56'12413.6
2014-Aug-16 17:25N 38°50' E 118°19'1213.4
2014-Aug-16 16:33N 38°55' E 118°05'1413.8
2014-Aug-16 15:33N 38°58' E 117°48'1 1.3
2014-Aug-16 14:33N 38°59' E 117°46'0 0.0
2014-Aug-16 13:33N 38°59' E 117°46'0 0.0
2014-Aug-16 12:33N 38°59' E 117°46'0 0.0
2014-Aug-16 11:33N 38°59' E 117°46'0 0.0
2014-Aug-16 10:33N 38°59' E 117°46'0 0.0
2014-Aug-16 09:33N 38°59' E 117°46'0 0.0
2014-Aug-16 08:33N 38°59' E 117°46'0 0.0
2014-Aug-16 07:33N 38°59' E 117°46'0 0.0
2014-Aug-16 06:33N 38°59' E 117°46'0 0.0
2014-Aug-16 05:33N 38°59' E 117°46'0 0.0
2014-Aug-16 04:33N 38°59' E 117°46'0 0.0
2014-Aug-16 03:33N 38°59' E 117°46'0 0.0
2014-Aug-16 02:27N 38°59' E 117°46'0 0.0
2014-Aug-16 01:33N 38°59' E 117°46'0 0.0
2014-Aug-16 00:33N 38°59' E 117°46'0 0.0
2014-Aug-15 23:33N 38°59' E 117°46'0 0.5
2014-Aug-15 22:34N 38°58' E 117°47'1212.2
2014-Aug-15 21:34N 38°56' E 118°02'1010.5
2014-Aug-15 20:33N 38°53' E 118°15'1615.9
2014-Aug-15 19:33N 38°50' E 118°35'1312.5
2014-Aug-15 18:32N 38°48' E 118°51'7811.2
2014-Aug-15 11:33N 38°40' E 120°31'1110.9
2014-Aug-15 10:33N 38°39' E 120°45'1110.2
2014-Aug-15 09:30N 38°35' E 120°58'1212.2
2014-Aug-15 08:33N 38°31' E 121°12'1312.7
2014-Aug-15 07:33N 38°31' E 121°28'1212.1
2014-Aug-15 06:33N 38°34' E 121°43'1312.6
2014-Aug-15 05:33N 38°45' E 121°51'1211.7
2014-Aug-15 04:33N 38°56' E 121°56'0 0.0
2014-Aug-14 18:30N 38°56' E 121°56'9 9.3
2014-Aug-14 17:33N 38°48' E 122°00'3 3.1
2014-Aug-14 16:33N 38°45' E 122°02'10 9.5
2014-Aug-14 15:33N 38°36' E 122°08'1715.8
2014-Aug-14 14:27N 38°21' E 122°17'3616.0
2014-Aug-14 12:13N 37°49' E 122°38'1116.1
2014-Aug-14 11:34N 37°40' E 122°44'1616.0
2014-Aug-14 10:33N 37°25' E 122°53'1615.5
2014-Aug-14 09:32N 37°10' E 122°53'1515.0
2014-Aug-14 08:33N 36°55' E 122°53'1414.4
2014-Aug-14 07:33N 36°40' E 122°53'  
Track history (hours):
 
Tides and Currents Weather Stations Pressure Air Temp Water Temp Dewpoint Dewpoint Depression Visibility Wind Speed Wind Dir Waves Ship Positions

Cosco Aden

Last reported at 2014-Aug-23 19:33 UTC. Time now 2014-Aug-31 02:32 UTC.
Position N 22°25' E 113°53'.

Length 261 m; draft 12.6 m.

Type: Ship (hazmat cat A). MMSI: 477765900.

Date/timePositionNaut miles runAvg speedWind from/ knotsBaromVisibWave heightAir tempDewpointWater temp
2014-Aug-23 19:33N 22°25' E 113°53'23 1.4
2014-Aug-23 03:33N 22°02' E 113°52'1414.2
2014-Aug-23 02:33N 22°16' E 113°48'1111.4
2014-Aug-23 01:34N 22°27' E 113°45'1212.0
2014-Aug-23 00:33N 22°38' E 113°41'0 0.1
2014-Aug-22 21:08N 22°38' E 113°41'1 0.3
2014-Aug-22 15:33N 22°37' E 113°42'1413.6
2014-Aug-22 14:33N 22°24' E 113°46'1111.3
2014-Aug-22 13:33N 22°13' E 113°49'1212.4
2014-Aug-22 12:33N 22°01' E 113°52'17515.8
2014-Aug-22 01:26N 22°53' E 116°54'1618.1
2014-Aug-22 00:32N 23°01' E 117°09'2814.0
2014-Aug-21 22:33N 23°16' E 117°34'1413.9
2014-Aug-21 21:33N 23°24' E 117°47'1413.9
2014-Aug-21 20:33N 23°34' E 117°58'1514.6
2014-Aug-21 19:34N 23°43' E 118°10'1514.8
2014-Aug-21 18:33N 23°53' E 118°22'1515.1
2014-Aug-21 17:33N 24°03' E 118°35'1514.8
2014-Aug-21 16:33N 24°13' E 118°47'1514.7
2014-Aug-21 15:33N 24°22' E 118°59'1514.9
2014-Aug-21 14:33N 24°32' E 119°12'1514.9
2014-Aug-21 13:32N 24°41' E 119°24'1614.3
2014-Aug-21 12:24N 24°52' E 119°37'1214.1
2014-Aug-21 11:33N 25°02' E 119°46'1414.4
2014-Aug-21 10:34N 25°13' E 119°55'1814.8
2014-Aug-21 09:20N 25°27' E 120°08'1114.6
2014-Aug-21 08:33N 25°36' E 120°16'25515.0
2014-Aug-20 15:34N 29°22' E 122°28'1716.5
2014-Aug-20 14:34N 29°39' E 122°26'1313.4
2014-Aug-20 13:33N 29°48' E 122°15'1111.2
2014-Aug-20 12:33N 29°55' E 122°05'2 1.9
2014-Aug-20 11:29N 29°53' E 122°03'0 0.0
2014-Aug-20 10:29N 29°53' E 122°03'0 0.0
2014-Aug-20 09:28N 29°53' E 122°03'0 0.0
2014-Aug-20 08:29N 29°53' E 122°03'0 0.0
2014-Aug-20 07:29N 29°53' E 122°03'0 0.0
2014-Aug-20 06:23N 29°53' E 122°03'0 0.0
2014-Aug-20 05:29N 29°53' E 122°03'0 0.0
2014-Aug-20 04:29N 29°53' E 122°03'0 0.0
2014-Aug-20 03:28N 29°53' E 122°03'0 0.0
2014-Aug-20 02:29N 29°53' E 122°03'0 0.0
2014-Aug-20 01:29N 29°53' E 122°03'2 2.5
2014-Aug-20 00:33N 29°54' E 122°05'8 8.3
2014-Aug-19 23:33N 29°50' E 122°13'1110.7
2014-Aug-19 22:33N 29°44' E 122°24'1110.7
2014-Aug-19 21:33N 29°48' E 122°35'1514.9
2014-Aug-19 20:33N 29°59' E 122°48'1515.2
2014-Aug-19 19:33N 30°10' E 122°60'1714.9
2014-Aug-19 18:26N 30°27' E 123°02'1715.3
2014-Aug-19 17:18N 30°44' E 123°03'1215.4
2014-Aug-19 16:31N 30°56' E 123°01'32412.3
2014-Aug-18 14:06N 35°57' E 120°40'713.0
2014-Aug-18 13:33N 35°59' E 120°31'1212.3
2014-Aug-18 12:33N 36°02' E 120°17'4 0.3
2014-Aug-18 01:08N 35°60' E 120°12'12010.3
2014-Aug-17 13:33N 36°45' E 122°30'1313.1
2014-Aug-17 12:33N 36°55' E 122°41'1313.3
2014-Aug-17 11:33N 37°07' E 122°46'1414.3
2014-Aug-17 10:34N 37°22' E 122°47'1514.4
2014-Aug-17 09:33N 37°35' E 122°40'1414.6
2014-Aug-17 08:34N 37°43' E 122°24'1414.0
2014-Aug-17 07:34N 37°52' E 122°10'1413.8
2014-Aug-17 06:33N 37°60' E 121°56'1414.1
2014-Aug-17 05:33N 38°09' E 121°43'1414.1
2014-Aug-17 04:33N 38°17' E 121°28'2014.5
2014-Aug-17 03:11N 38°27' E 121°06'914.2
2014-Aug-17 02:33N 38°31' E 120°56'12413.6
2014-Aug-16 17:25N 38°50' E 118°19'1213.4
2014-Aug-16 16:33N 38°55' E 118°05'1413.8
2014-Aug-16 15:33N 38°58' E 117°48'1 1.3
2014-Aug-16 14:33N 38°59' E 117°46'0 0.0
2014-Aug-16 13:33N 38°59' E 117°46'0 0.0
2014-Aug-16 12:33N 38°59' E 117°46'0 0.0
2014-Aug-16 11:33N 38°59' E 117°46'0 0.0
2014-Aug-16 10:33N 38°59' E 117°46'0 0.0
2014-Aug-16 09:33N 38°59' E 117°46'0 0.0
2014-Aug-16 08:33N 38°59' E 117°46'0 0.0
2014-Aug-16 07:33N 38°59' E 117°46'0 0.0
2014-Aug-16 06:33N 38°59' E 117°46'0 0.0
2014-Aug-16 05:33N 38°59' E 117°46'0 0.0
2014-Aug-16 04:33N 38°59' E 117°46'0 0.0
2014-Aug-16 03:33N 38°59' E 117°46'0 0.0
2014-Aug-16 02:27N 38°59' E 117°46'0 0.0
2014-Aug-16 01:33N 38°59' E 117°46'0 0.0
2014-Aug-16 00:33N 38°59' E 117°46'0 0.0
2014-Aug-15 23:33N 38°59' E 117°46'0 0.5
2014-Aug-15 22:34N 38°58' E 117°47'1212.2
2014-Aug-15 21:34N 38°56' E 118°02'1010.5
2014-Aug-15 20:33N 38°53' E 118°15'1615.9
2014-Aug-15 19:33N 38°50' E 118°35'1312.5
2014-Aug-15 18:32N 38°48' E 118°51'7811.2
2014-Aug-15 11:33N 38°40' E 120°31'1110.9
2014-Aug-15 10:33N 38°39' E 120°45'1110.2
2014-Aug-15 09:30N 38°35' E 120°58'1212.2
2014-Aug-15 08:33N 38°31' E 121°12'1312.7
2014-Aug-15 07:33N 38°31' E 121°28'1212.1
2014-Aug-15 06:33N 38°34' E 121°43'1312.6
2014-Aug-15 05:33N 38°45' E 121°51'1211.7
2014-Aug-15 04:33N 38°56' E 121°56'0 0.0
2014-Aug-14 18:30N 38°56' E 121°56'9 9.3
2014-Aug-14 17:33N 38°48' E 122°00'3 3.1
2014-Aug-14 16:33N 38°45' E 122°02'10 9.5
2014-Aug-14 15:33N 38°36' E 122°08'1715.8
2014-Aug-14 14:27N 38°21' E 122°17'3616.0
2014-Aug-14 12:13N 37°49' E 122°38'1116.1
2014-Aug-14 11:34N 37°40' E 122°44'1616.0
2014-Aug-14 10:33N 37°25' E 122°53'1615.5
2014-Aug-14 09:32N 37°10' E 122°53'1515.0
2014-Aug-14 08:33N 36°55' E 122°53'1414.4
2014-Aug-14 07:33N 36°40' E 122°53'  

Dump ship's entire track history